Time;durP1;ratioP1;P1;durP2;ratioP2;P2;SDS_P1;SDS_P2;PMS_P1;PMS_P2;Temp;Humidity;BMP_temperature;BMP_pressure;BME280_temperature;BME280_humidity;BME280_pressure;Samples;Min_cycle;Max_cycle;Signal;HPM_P1;HPM_P2
2023/08/18 00:00:30;;;;;;;4.18;2.10;;;16.60;99.90;;;;;;5082569;28;20380;-72
2023/08/18 00:02:55;;;;;;;3.97;2.05;;;16.50;99.90;;;;;;5073803;28;20055;-72
2023/08/18 00:05:21;;;;;;;3.10;1.73;;;16.60;99.90;;;;;;5080478;28;20036;-73
2023/08/18 00:07:47;;;;;;;5.00;2.20;;;16.50;99.90;;;;;;5080376;28;20075;-73
2023/08/18 00:10:13;;;;;;;5.47;2.25;;;16.50;99.90;;;;;;5064203;28;20044;-73
2023/08/18 00:12:38;;;;;;;5.75;2.10;;;16.50;99.90;;;;;;5065615;28;20051;-73
2023/08/18 00:15:05;;;;;;;6.63;2.08;;;16.50;99.90;;;;;;5082990;28;20043;-73
2023/08/18 00:17:31;;;;;;;4.18;1.88;;;16.40;99.90;;;;;;5079516;28;20383;-73
2023/08/18 00:19:56;;;;;;;4.20;2.53;;;16.40;99.90;;;;;;5065165;28;20142;-73
2023/08/18 00:22:22;;;;;;;5.45;2.67;;;16.40;99.90;;;;;;5080460;28;20130;-73
2023/08/18 00:24:48;;;;;;;2.67;1.92;;;16.40;99.90;;;;;;5083831;28;20098;-73
2023/08/18 00:27:17;;;;;;;2.75;1.88;;;16.40;99.90;;;;;;5083165;28;20436;-73
2023/08/18 00:29:43;;;;;;;5.07;2.15;;;16.40;99.90;;;;;;5061899;28;20032;-73
2023/08/18 00:32:09;;;;;;;3.47;1.65;;;16.40;99.90;;;;;;5079935;28;20571;-73
2023/08/18 00:34:34;;;;;;;3.83;2.17;;;16.40;99.90;;;;;;5072894;28;20063;-73
2023/08/18 00:37:00;;;;;;;3.28;1.85;;;16.40;99.90;;;;;;5064649;28;20123;-73
2023/08/18 00:39:26;;;;;;;3.35;2.05;;;16.40;99.90;;;;;;5084842;28;20561;-73
2023/08/18 00:41:51;;;;;;;4.15;2.10;;;16.40;99.90;;;;;;5076149;28;20135;-73
2023/08/18 00:44:17;;;;;;;3.67;2.30;;;16.40;99.90;;;;;;5082267;28;20462;-73
2023/08/18 00:46:44;;;;;;;5.18;2.20;;;16.40;99.90;;;;;;5064066;28;20051;-72
2023/08/18 00:49:10;;;;;;;3.47;2.10;;;16.40;99.90;;;;;;5076627;28;20675;-73
2023/08/18 00:51:38;;;;;;;3.22;2.00;;;16.30;99.90;;;;;;5063469;28;20115;-73
2023/08/18 00:54:05;;;;;;;3.55;1.77;;;16.40;99.90;;;;;;5081556;28;20069;-73
2023/08/18 00:56:31;;;;;;;4.18;1.90;;;16.30;99.90;;;;;;5082911;28;20032;-73
2023/08/18 00:58:58;;;;;;;6.05;2.17;;;16.40;99.90;;;;;;5081797;28;20094;-73
2023/08/18 01:01:24;;;;;;;5.43;2.35;;;16.30;99.90;;;;;;5062474;28;20040;-73
2023/08/18 01:03:51;;;;;;;6.15;2.28;;;16.30;99.90;;;;;;5081546;28;20044;-72
2023/08/18 01:06:16;;;;;;;3.88;2.03;;;16.30;99.90;;;;;;5065366;28;20054;-73
2023/08/18 01:08:42;;;;;;;4.00;2.10;;;16.30;99.90;;;;;;5061061;28;20036;-73
2023/08/18 01:11:20;;;;;;;4.28;2.03;;;16.30;99.90;;;;;;5064735;28;20062;-73
2023/08/18 01:13:52;;;;;;;4.90;1.92;;;16.30;99.90;;;;;;5064056;28;20047;-73
2023/08/18 01:16:26;;;;;;;4.82;2.30;;;16.30;99.90;;;;;;5078712;28;20040;-73
2023/08/18 01:18:53;;;;;;;4.72;2.10;;;16.30;99.90;;;;;;5079547;28;20040;-73
2023/08/18 01:21:22;;;;;;;4.55;2.22;;;16.30;99.90;;;;;;5080534;28;20032;-72
2023/08/18 01:23:48;;;;;;;4.13;1.92;;;16.30;99.90;;;;;;5080958;28;20040;-72
2023/08/18 01:26:14;;;;;;;4.20;2.28;;;16.30;99.90;;;;;;5062475;28;20032;-73
2023/08/18 01:28:40;;;;;;;4.18;2.00;;;16.20;99.90;;;;;;5065506;28;20036;-73
2023/08/18 01:31:31;;;;;;;4.55;2.10;;;16.20;99.90;;;;;;5080464;28;20498;-73
2023/08/18 01:34:01;;;;;;;3.35;1.90;;;16.30;99.90;;;;;;5062203;28;20063;-73
2023/08/18 01:36:35;;;;;;;4.82;2.05;;;16.30;99.90;;;;;;5075940;28;20041;-73
2023/08/18 01:39:02;;;;;;;4.25;2.13;;;16.30;99.90;;;;;;5061889;28;20050;-73
2023/08/18 01:41:30;;;;;;;5.35;2.42;;;16.30;99.90;;;;;;5082098;28;20036;-73
2023/08/18 01:43:56;;;;;;;3.17;2.10;;;16.30;99.90;;;;;;5110143;27;20054;-73
2023/08/18 01:46:21;;;;;;;3.60;2.20;;;16.30;99.90;;;;;;5078533;28;20127;-73
2023/08/18 01:48:47;;;;;;;4.80;2.20;;;16.30;99.90;;;;;;5078877;28;20581;-73
2023/08/18 01:51:13;;;;;;;4.82;2.13;;;16.30;99.90;;;;;;5080739;28;20054;-73
2023/08/18 01:53:38;;;;;;;4.63;1.92;;;16.20;99.90;;;;;;5079041;28;20121;-73
2023/08/18 01:56:04;;;;;;;5.97;2.90;;;16.20;99.90;;;;;;5081375;28;20433;-73
2023/08/18 01:58:30;;;;;;;3.65;2.10;;;16.20;99.90;;;;;;5081484;28;20067;-73
2023/08/18 02:00:57;;;;;;;5.95;2.40;;;16.20;99.90;;;;;;5060744;28;20082;-72
2023/08/18 02:03:27;;;;;;;4.20;2.15;;;16.20;99.90;;;;;;5079252;28;20113;-73
2023/08/18 02:05:53;;;;;;;5.43;2.40;;;16.20;99.90;;;;;;5082052;28;20056;-73
2023/08/18 02:08:20;;;;;;;5.50;2.83;;;16.20;99.90;;;;;;5082260;28;20044;-73
2023/08/18 02:10:46;;;;;;;6.07;2.70;;;16.20;99.90;;;;;;5063703;28;20090;-73
2023/08/18 02:13:11;;;;;;;7.57;2.92;;;16.20;99.90;;;;;;5083728;28;20454;-73
2023/08/18 02:15:38;;;;;;;5.35;2.55;;;16.20;99.90;;;;;;5068271;28;20518;-72
2023/08/18 02:18:04;;;;;;;4.40;2.75;;;16.20;99.90;;;;;;5083450;28;20482;-73
2023/08/18 02:20:33;;;;;;;6.45;2.80;;;16.20;99.90;;;;;;5115863;27;20036;-73
2023/08/18 02:22:58;;;;;;;5.85;2.80;;;16.20;99.90;;;;;;5062714;28;20505;-73
2023/08/18 02:25:24;;;;;;;4.80;2.53;;;16.20;99.90;;;;;;5081374;28;20043;-72
2023/08/18 02:27:50;;;;;;;4.03;2.58;;;16.20;99.90;;;;;;5083361;28;20051;-73
2023/08/18 02:30:17;;;;;;;6.63;3.20;;;16.20;99.90;;;;;;5069398;28;20040;-73
2023/08/18 02:32:42;;;;;;;5.32;2.90;;;16.20;99.90;;;;;;5121982;27;20517;-73
2023/08/18 02:35:08;;;;;;;4.97;2.95;;;16.20;99.90;;;;;;5084344;28;20761;-74
2023/08/18 02:37:34;;;;;;;5.93;2.97;;;16.20;99.90;;;;;;5090044;28;20474;-74
2023/08/18 02:40:00;;;;;;;4.95;3.10;;;16.20;99.90;;;;;;5082840;28;20048;-74
2023/08/18 02:42:25;;;;;;;4.82;3.03;;;16.20;99.90;;;;;;5089580;27;20065;-73
2023/08/18 02:44:51;;;;;;;6.90;4.28;;;16.20;99.90;;;;;;5069172;28;20592;-73
2023/08/18 02:47:17;;;;;;;7.35;3.85;;;16.20;99.90;;;;;;5087872;28;20040;-73
2023/08/18 02:49:46;;;;;;;5.35;3.58;;;16.20;99.90;;;;;;5085237;28;20051;-73
2023/08/18 02:52:12;;;;;;;5.75;3.67;;;16.20;99.90;;;;;;5069682;28;20421;-73
2023/08/18 02:54:38;;;;;;;5.78;3.47;;;16.20;99.90;;;;;;5118971;27;20044;-73
2023/08/18 02:57:04;;;;;;;7.68;3.95;;;16.20;99.90;;;;;;5085241;28;20046;-73
2023/08/18 02:59:29;;;;;;;7.65;4.63;;;16.20;99.90;;;;;;5085821;28;20070;-73
2023/08/18 03:01:55;;;;;;;8.77;4.82;;;16.20;99.90;;;;;;5069082;28;20402;-73
2023/08/18 03:04:21;;;;;;;5.68;4.00;;;16.20;99.90;;;;;;5087295;28;20747;-72
2023/08/18 03:06:46;;;;;;;7.43;4.40;;;16.20;99.90;;;;;;5085887;28;20144;-73
2023/08/18 03:09:12;;;;;;;8.98;4.55;;;16.20;99.90;;;;;;5081509;28;20062;-73
2023/08/18 03:11:38;;;;;;;7.63;4.25;;;16.20;99.90;;;;;;5084388;28;20254;-73
2023/08/18 03:14:06;;;;;;;8.52;5.05;;;16.20;99.90;;;;;;5122065;27;20567;-73
2023/08/18 03:16:33;;;;;;;8.73;4.90;;;16.20;99.90;;;;;;5085721;28;20127;-72
2023/08/18 03:18:59;;;;;;;8.43;4.82;;;16.20;99.90;;;;;;5086409;28;20039;-73
2023/08/18 03:21:25;;;;;;;8.95;4.30;;;16.20;99.90;;;;;;5070596;28;20096;-73
2023/08/18 03:23:51;;;;;;;8.05;4.90;;;16.20;99.90;;;;;;5085527;28;20379;-73
2023/08/18 03:26:16;;;;;;;9.82;4.60;;;16.20;99.90;;;;;;5089093;28;20440;-73
2023/08/18 03:28:42;;;;;;;8.95;5.38;;;16.20;99.90;;;;;;5085386;28;20079;-73
2023/08/18 03:31:08;;;;;;;8.18;4.68;;;16.20;99.90;;;;;;5086767;28;20047;-73
2023/08/18 03:33:35;;;;;;;8.32;4.50;;;16.20;99.90;;;;;;5069590;28;20493;-73
2023/08/18 03:36:00;;;;;;;8.73;5.22;;;16.20;99.90;;;;;;5086707;28;20378;-74
2023/08/18 03:38:27;;;;;;;9.32;5.07;;;16.20;99.90;;;;;;5069517;28;20104;-73
2023/08/18 03:41:06;;;;;;;8.25;4.47;;;16.20;99.90;;;;;;5118960;27;20056;-73
2023/08/18 03:43:33;;;;;;;9.80;4.70;;;16.20;99.90;;;;;;5087023;28;20043;-73
2023/08/18 03:46:01;;;;;;;8.73;4.70;;;16.20;99.90;;;;;;5070612;28;20047;-73
2023/08/18 03:48:27;;;;;;;6.75;4.50;;;16.20;99.90;;;;;;5084051;28;20061;-72
2023/08/18 03:50:52;;;;;;;6.85;4.35;;;16.20;99.90;;;;;;5084640;28;20055;-73
2023/08/18 03:53:22;;;;;;;8.25;4.97;;;16.20;99.90;;;;;;5085670;28;20078;-73
2023/08/18 03:55:52;;;;;;;8.13;4.50;;;16.20;99.90;;;;;;5084374;28;20498;-75
2023/08/18 03:58:18;;;;;;;;;;;16.20;99.90;;;;;;5119815;27;20071;-73
2023/08/18 04:00:43;;;;;;;11.20;6.00;;;16.20;99.90;;;;;;5116510;27;19974;-73
2023/08/18 04:03:09;;;;;;;10.02;5.60;;;16.10;99.90;;;;;;5084457;28;20044;-73
2023/08/18 04:05:36;;;;;;;8.55;5.82;;;16.20;99.90;;;;;;5087091;28;20594;-73
2023/08/18 04:08:02;;;;;;;10.13;6.32;;;16.20;99.90;;;;;;5065346;28;20039;-73
2023/08/18 04:10:29;;;;;;;8.35;5.63;;;16.20;99.90;;;;;;5101288;28;20067;-73
2023/08/18 04:12:55;;;;;;;9.10;6.38;;;16.20;99.90;;;;;;5085071;28;20522;-73
2023/08/18 04:15:21;;;;;;;8.50;6.15;;;16.20;99.90;;;;;;5086313;28;20090;-73
2023/08/18 04:17:46;;;;;;;9.38;6.47;;;16.20;99.90;;;;;;5081202;28;20040;-73
2023/08/18 04:20:12;;;;;;;10.75;5.97;;;16.20;99.90;;;;;;5085748;28;20047;-73
2023/08/18 04:22:38;;;;;;;9.75;6.07;;;16.20;99.90;;;;;;5066360;27;20039;-73
2023/08/18 04:25:05;;;;;;;10.70;6.00;;;16.20;99.90;;;;;;5119120;27;20482;-73
2023/08/18 04:27:31;;;;;;;8.90;6.38;;;16.20;99.90;;;;;;5118322;27;20067;-73
2023/08/18 04:29:56;;;;;;;9.60;6.55;;;16.20;99.90;;;;;;5086047;28;20067;-73
2023/08/18 04:32:23;;;;;;;9.80;6.03;;;16.20;99.90;;;;;;5084392;28;20129;-73
2023/08/18 04:34:49;;;;;;;7.93;6.00;;;16.20;99.90;;;;;;5067301;28;20035;-73
2023/08/18 04:37:14;;;;;;;9.75;6.55;;;16.20;99.90;;;;;;5066825;28;20050;-73
2023/08/18 04:39:40;;;;;;;10.13;7.20;;;16.20;99.90;;;;;;5118254;27;20091;-73
2023/08/18 04:42:06;;;;;;;9.52;6.47;;;16.20;99.90;;;;;;5067363;28;20483;-73
2023/08/18 04:44:32;;;;;;;9.00;6.30;;;16.20;99.90;;;;;;5069337;28;20126;-73
2023/08/18 04:47:01;;;;;;;9.07;7.05;;;16.20;99.90;;;;;;5083985;28;20450;-73
2023/08/18 04:49:27;;;;;;;11.10;7.20;;;16.20;99.90;;;;;;5084917;28;20047;-73
2023/08/18 04:51:53;;;;;;;9.73;6.75;;;16.20;99.90;;;;;;5067655;27;20050;-73
2023/08/18 04:54:18;;;;;;;10.60;7.13;;;16.20;99.90;;;;;;5086311;28;20062;-73
2023/08/18 04:56:45;;;;;;;9.18;6.88;;;16.20;99.90;;;;;;5066246;28;20039;-73
2023/08/18 04:59:11;;;;;;;9.88;6.72;;;16.20;99.90;;;;;;5068741;28;20051;-73
2023/08/18 05:01:37;;;;;;;7.50;6.57;;;16.20;99.90;;;;;;5086475;28;20038;-73
2023/08/18 05:04:03;;;;;;;8.98;6.95;;;16.20;99.90;;;;;;5083465;28;20052;-73
2023/08/18 05:06:29;;;;;;;9.48;7.07;;;16.20;99.90;;;;;;5084726;28;20381;-73
2023/08/18 05:08:55;;;;;;;7.70;6.60;;;16.20;99.90;;;;;;5066080;28;20051;-73
2023/08/18 05:11:20;;;;;;;10.02;7.72;;;16.20;99.90;;;;;;5082296;28;20044;-73
2023/08/18 05:13:46;;;;;;;11.05;8.02;;;16.30;99.90;;;;;;5084947;28;20043;-73
2023/08/18 05:16:12;;;;;;;9.52;8.20;;;16.30;99.90;;;;;;5083424;28;20397;-73
2023/08/18 05:18:38;;;;;;;10.18;7.50;;;16.30;99.90;;;;;;5067877;28;20094;-72
2023/08/18 05:21:04;;;;;;;8.75;7.57;;;16.30;99.90;;;;;;5059940;28;20039;-73
2023/08/18 05:23:30;;;;;;;8.48;7.55;;;16.30;99.90;;;;;;5084943;28;20508;-73
2023/08/18 05:25:56;;;;;;;9.10;8.20;;;16.30;99.90;;;;;;5065645;28;20529;-73
2023/08/18 05:28:28;;;;;;;9.98;8.00;;;16.30;99.90;;;;;;5085163;28;20071;-73
2023/08/18 05:30:53;;;;;;;9.30;8.18;;;16.30;99.90;;;;;;5084424;28;20040;-73
2023/08/18 05:33:23;;;;;;;12.27;8.50;;;16.30;99.90;;;;;;5079976;28;20036;-73
2023/08/18 05:35:49;;;;;;;10.82;8.70;;;16.30;99.90;;;;;;5066497;28;20982;-74
2023/08/18 05:38:14;;;;;;;11.38;9.07;;;16.30;99.90;;;;;;5065840;28;20078;-73
2023/08/18 05:40:50;;;;;;;11.02;8.70;;;16.30;99.90;;;;;;5103834;27;20482;-72
2023/08/18 05:43:18;;;;;;;13.07;9.95;;;16.30;99.90;;;;;;5079205;28;20055;-73
2023/08/18 05:45:46;;;;;;;12.85;9.90;;;16.30;99.90;;;;;;5084189;28;20650;-73
2023/08/18 05:48:13;;;;;;;13.52;11.07;;;16.30;99.90;;;;;;5084459;28;20055;-73
2023/08/18 05:50:39;;;;;;;14.30;11.02;;;16.30;99.90;;;;;;5066103;28;20071;-73
2023/08/18 05:53:05;;;;;;;17.25;12.45;;;16.30;99.90;;;;;;5118992;27;20047;-73
2023/08/18 05:55:32;;;;;;;15.27;11.45;;;16.30;99.90;;;;;;5083064;28;20442;-73
2023/08/18 05:58:02;;;;;;;15.40;12.38;;;16.30;99.90;;;;;;5083393;28;20104;-73
2023/08/18 06:00:29;;;;;;;16.98;13.38;;;16.30;99.90;;;;;;5082579;28;20079;-72
2023/08/18 06:02:55;;;;;;;18.13;12.90;;;16.30;99.90;;;;;;5063763;28;20036;-73
2023/08/18 06:05:22;;;;;;;18.83;13.88;;;16.30;99.90;;;;;;5081467;28;20743;-73
2023/08/18 06:07:48;;;;;;;15.20;13.48;;;16.30;99.90;;;;;;5083444;28;20043;-73
2023/08/18 06:10:14;;;;;;;18.30;13.90;;;16.30;99.90;;;;;;5063090;28;20047;-73
2023/08/18 06:12:40;;;;;;;17.60;14.07;;;16.30;99.90;;;;;;5117938;27;20048;-73
2023/08/18 06:15:07;;;;;;;20.42;14.05;;;16.20;99.90;;;;;;5083405;28;20134;-73
2023/08/18 06:17:33;;;;;;;17.10;14.73;;;16.30;99.90;;;;;;5063759;28;20468;-73
2023/08/18 06:19:59;;;;;;;18.55;14.52;;;16.30;99.90;;;;;;5067222;28;20127;-74
2023/08/18 06:22:25;;;;;;;19.15;14.68;;;16.30;99.90;;;;;;5063394;28;20075;-73
2023/08/18 06:24:54;;;;;;;17.65;14.75;;;16.30;99.90;;;;;;5065401;28;20071;-73
2023/08/18 06:27:20;;;;;;;18.83;14.95;;;16.30;99.90;;;;;;5079643;28;20054;-72
2023/08/18 06:29:45;;;;;;;20.42;15.70;;;16.30;99.90;;;;;;5100115;28;20110;-72
2023/08/18 06:32:11;;;;;;;22.77;15.90;;;16.40;99.90;;;;;;5085274;28;20498;-73
2023/08/18 06:34:41;;;;;;;17.48;14.50;;;16.40;99.90;;;;;;5080640;28;20080;-73
2023/08/18 06:37:06;;;;;;;18.65;15.65;;;16.40;99.90;;;;;;5068410;28;20043;-73
2023/08/18 06:39:32;;;;;;;20.00;15.07;;;16.40;99.90;;;;;;5118447;27;20494;-73
2023/08/18 06:41:58;;;;;;;19.17;15.05;;;16.40;99.90;;;;;;5082593;28;20050;-73
2023/08/18 06:44:24;;;;;;;19.48;14.77;;;16.40;99.90;;;;;;5063021;28;20035;-73
2023/08/18 06:46:50;;;;;;;22.60;14.93;;;16.50;99.90;;;;;;5076361;28;20067;-72
2023/08/18 06:49:15;;;;;;;17.17;15.15;;;16.50;99.90;;;;;;5078924;28;20427;-73
2023/08/18 06:51:41;;;;;;;18.88;14.90;;;16.50;99.90;;;;;;5084961;28;20070;-73
2023/08/18 06:54:07;;;;;;;19.48;14.93;;;16.50;99.90;;;;;;5079394;28;20063;-73
2023/08/18 06:56:33;;;;;;;22.55;14.43;;;16.60;99.90;;;;;;5067550;28;21588;-73
2023/08/18 06:58:59;;;;;;;18.10;12.68;;;16.60;99.90;;;;;;5085224;28;20081;-73
2023/08/18 07:01:25;;;;;;;16.45;12.50;;;16.60;99.90;;;;;;5101085;28;20517;-73
2023/08/18 07:03:53;;;;;;;15.45;11.77;;;16.60;99.90;;;;;;5080231;28;20100;-73
2023/08/18 07:06:20;;;;;;;18.45;13.43;;;16.60;99.90;;;;;;5085074;28;20046;-73
2023/08/18 07:08:45;;;;;;;17.77;13.27;;;16.70;99.90;;;;;;5063765;28;20402;-78
2023/08/18 07:11:11;;;;;;;20.92;13.15;;;16.70;99.90;;;;;;5100207;28;20333;-78
2023/08/18 07:13:37;;;;;;;19.40;13.77;;;16.70;99.90;;;;;;5084078;28;20122;-77
2023/08/18 07:16:04;;;;;;;17.83;12.77;;;16.70;99.90;;;;;;5085779;28;20432;-77
2023/08/18 07:18:30;;;;;;;16.98;13.13;;;16.70;99.90;;;;;;5085983;28;20052;-78
2023/08/18 07:20:57;;;;;;;22.27;14.45;;;16.80;99.90;;;;;;5089582;28;20036;-78
2023/08/18 07:23:24;;;;;;;20.17;12.43;;;16.80;99.90;;;;;;5068996;28;20043;-77
2023/08/18 07:25:50;;;;;;;15.82;12.07;;;16.80;99.90;;;;;;5102157;28;20040;-77
2023/08/18 07:28:19;;;;;;;23.60;14.15;;;16.90;99.90;;;;;;5086495;28;20054;-77
2023/08/18 07:30:45;;;;;;;21.50;14.82;;;16.90;99.90;;;;;;5085501;28;20439;-77
2023/08/18 07:33:11;;;;;;;21.40;14.50;;;16.90;99.90;;;;;;5085933;28;20051;-77
2023/08/18 07:35:36;;;;;;;26.33;14.80;;;16.90;99.90;;;;;;5086234;28;20096;-77
2023/08/18 07:38:02;;;;;;;24.35;14.48;;;17.00;99.90;;;;;;5082788;28;20044;-77
2023/08/18 07:40:28;;;;;;;20.45;14.73;;;16.90;99.90;;;;;;5070410;28;20060;-78
2023/08/18 07:42:54;;;;;;;24.63;14.50;;;16.90;99.90;;;;;;5086090;28;20042;-78
2023/08/18 07:45:20;;;;;;;22.55;14.25;;;16.90;99.90;;;;;;5070589;28;20097;-78
2023/08/18 07:47:46;;;;;;;24.42;14.65;;;17.00;99.90;;;;;;5082651;28;20052;-77
2023/08/18 07:50:13;;;;;;;22.88;14.48;;;17.00;99.90;;;;;;5072289;28;20055;-77
2023/08/18 07:52:40;;;;;;;21.67;13.35;;;17.00;99.90;;;;;;5068530;28;20541;-77
2023/08/18 07:55:10;;;;;;;26.40;14.05;;;17.00;99.90;;;;;;5066778;28;20115;-77
2023/08/18 07:57:37;;;;;;;;;;;17.10;99.90;;;;;;5104115;28;20032;-77
2023/08/18 08:00:10;;;;;;;26.17;14.05;;;17.10;99.90;;;;;;5069199;28;20332;-77
2023/08/18 08:02:36;;;;;;;22.38;13.70;;;17.20;99.90;;;;;;5086550;28;20047;-77
2023/08/18 08:05:05;;;;;;;23.27;13.02;;;17.20;99.90;;;;;;5084742;28;20541;-77
2023/08/18 08:07:33;;;;;;;24.83;14.03;;;17.30;99.90;;;;;;5066537;28;20042;-77
2023/08/18 08:10:03;;;;;;;23.90;12.55;;;17.40;99.90;;;;;;5057743;28;20056;-77
2023/08/18 08:12:34;;;;;;;23.08;12.77;;;17.50;99.90;;;;;;5068314;28;20109;-78
2023/08/18 08:15:01;;;;;;;22.55;13.35;;;17.50;99.90;;;;;;5080218;28;20479;-78
2023/08/18 08:17:29;;;;;;;21.42;12.32;;;17.60;99.90;;;;;;5067162;28;20449;-77
2023/08/18 08:20:00;;;;;;;21.77;12.65;;;17.60;99.90;;;;;;5081519;28;20040;-78
2023/08/18 08:22:26;;;;;;;19.15;12.00;;;17.60;99.90;;;;;;5082505;28;20051;-77
2023/08/18 08:24:54;;;;;;;18.55;12.18;;;17.60;99.90;;;;;;5061750;28;20046;-77
2023/08/18 08:27:21;;;;;;;20.42;12.32;;;17.70;99.90;;;;;;5065464;28;20048;-77
2023/08/18 08:29:46;;;;;;;18.98;12.98;;;17.60;99.90;;;;;;5081036;28;20040;-77
2023/08/18 08:32:12;;;;;;;17.38;11.70;;;17.70;99.90;;;;;;5065577;28;20052;-77
2023/08/18 08:34:40;;;;;;;18.15;11.57;;;17.70;99.90;;;;;;5066426;28;20089;-77
2023/08/18 08:37:06;;;;;;;20.55;12.80;;;17.70;99.90;;;;;;5098219;28;20036;-77
2023/08/18 08:39:32;;;;;;;17.23;11.88;;;17.70;99.90;;;;;;5063525;28;20044;-77
2023/08/18 08:41:58;;;;;;;18.63;11.05;;;17.70;99.90;;;;;;5082724;28;20471;-77
2023/08/18 08:44:24;;;;;;;15.82;11.57;;;17.80;99.90;;;;;;5064285;28;20067;-77
2023/08/18 08:46:51;;;;;;;19.67;11.13;;;17.90;99.90;;;;;;5082545;28;20044;-77
2023/08/18 08:49:19;;;;;;;17.05;11.55;;;17.90;99.90;;;;;;5078718;28;20122;-77
2023/08/18 08:51:50;;;;;;;17.35;11.68;;;18.00;99.90;;;;;;5079502;28;20051;-77
2023/08/18 08:54:21;;;;;;;17.60;12.57;;;18.00;99.90;;;;;;5080740;28;20040;-77
2023/08/18 08:56:49;;;;;;;15.80;10.90;;;18.10;99.90;;;;;;5063963;28;20051;-77
2023/08/18 08:59:16;;;;;;;17.70;11.73;;;18.10;99.90;;;;;;5063005;28;20048;-77
2023/08/18 09:01:42;;;;;;;16.90;11.57;;;18.20;99.90;;;;;;5115523;27;20040;-78
2023/08/18 09:04:09;;;;;;;17.02;11.48;;;18.30;99.90;;;;;;5081449;28;20048;-78
2023/08/18 09:06:35;;;;;;;17.83;12.13;;;18.30;99.90;;;;;;5081456;28;20051;-78
2023/08/18 09:09:02;;;;;;;18.58;12.18;;;18.40;99.90;;;;;;5063702;28;20040;-77
2023/08/18 09:11:47;;;;;;;18.02;11.82;;;18.50;99.90;;;;;;5068990;28;20314;-78
2023/08/18 09:14:16;;;;;;;17.15;12.38;;;18.40;99.90;;;;;;5084042;28;20109;-78
2023/08/18 09:16:44;;;;;;;16.13;11.80;;;18.50;99.90;;;;;;5113231;27;20100;-78
2023/08/18 09:19:16;;;;;;;22.48;13.75;;;18.60;99.90;;;;;;5083126;28;20043;-78
2023/08/18 09:21:42;;;;;;;19.48;14.00;;;18.60;99.90;;;;;;5068035;28;20078;-77
2023/08/18 09:24:08;;;;;;;18.80;12.80;;;18.60;99.90;;;;;;5118033;27;20035;-78
2023/08/18 09:26:35;;;;;;;18.55;12.40;;;18.70;99.90;;;;;;5084681;28;20043;-78
2023/08/18 09:29:02;;;;;;;17.50;11.63;;;18.80;99.90;;;;;;5085107;28;20500;-78
2023/08/18 09:31:29;;;;;;;19.27;12.43;;;18.90;99.90;;;;;;5115573;27;20386;-78
2023/08/18 09:33:54;;;;;;;18.50;12.18;;;19.00;99.90;;;;;;5070933;28;20770;-78
2023/08/18 09:36:20;;;;;;;18.02;12.18;;;19.00;99.90;;;;;;5117254;27;20355;-78
2023/08/18 09:38:46;;;;;;;17.02;11.57;;;19.10;99.90;;;;;;5082064;28;20028;-78
2023/08/18 09:41:13;;;;;;;18.80;12.32;;;19.10;99.90;;;;;;5067054;28;20083;-78
2023/08/18 09:43:48;;;;;;;16.88;12.23;;;19.20;99.90;;;;;;5086180;28;20063;-78
2023/08/18 09:46:16;;;;;;;18.52;12.85;;;19.30;99.90;;;;;;5065884;28;20064;-78
2023/08/18 09:48:46;;;;;;;17.02;12.32;;;19.30;99.90;;;;;;5084496;28;20119;-78
2023/08/18 09:51:15;;;;;;;15.68;12.02;;;19.40;99.90;;;;;;5115501;27;20453;-77
2023/08/18 09:53:59;;;;;;;16.48;12.32;;;19.30;99.90;;;;;;5068251;28;20563;-79
2023/08/18 09:56:28;;;;;;;14.80;11.13;;;19.40;99.90;;;;;;5068325;28;20079;-78
2023/08/18 09:59:01;;;;;;;14.32;11.90;;;19.50;99.90;;;;;;5066717;28;20035;-79
2023/08/18 10:01:28;;;;;;;13.18;10.55;;;19.50;99.90;;;;;;5099290;28;20055;-78
2023/08/18 10:03:54;;;;;;;14.73;11.48;;;19.60;99.90;;;;;;5080462;28;20034;-79
2023/08/18 10:06:21;;;;;;;13.98;10.77;;;19.60;99.90;;;;;;5084455;28;20050;-78
2023/08/18 10:08:47;;;;;;;13.80;11.25;;;19.70;99.90;;;;;;5081843;28;20660;-78
2023/08/18 10:11:14;;;;;;;13.40;10.73;;;19.80;99.90;;;;;;5063730;28;20076;-79
2023/08/18 10:13:41;;;;;;;14.52;11.48;;;19.80;99.90;;;;;;5098801;28;20035;-79
2023/08/18 10:16:06;;;;;;;13.25;10.25;;;19.80;99.90;;;;;;5064559;28;20047;-78
2023/08/18 10:18:33;;;;;;;13.82;9.77;;;19.80;99.90;;;;;;5079305;28;20043;-78
2023/08/18 10:20:59;;;;;;;12.48;9.85;;;19.80;99.90;;;;;;5066416;28;20036;-79
2023/08/18 10:23:29;;;;;;;12.18;10.35;;;19.90;99.90;;;;;;5067194;28;20039;-78
2023/08/18 10:25:55;;;;;;;;;;;20.00;99.90;;;;;;5084881;28;20393;-79
2023/08/18 10:28:22;;;;;;;13.15;10.63;;;20.00;99.90;;;;;;5116472;27;19921;-78
2023/08/18 10:31:05;;;;;;;11.90;9.93;;;20.00;99.90;;;;;;5083788;28;20052;-79
2023/08/18 10:33:35;;;;;;;11.38;9.95;;;20.10;99.90;;;;;;5083507;28;20051;-78
2023/08/18 10:36:05;;;;;;;11.20;9.77;;;20.10;99.90;;;;;;5080781;28;20135;-77
2023/08/18 10:38:33;;;;;;;11.38;9.75;;;20.20;99.90;;;;;;5100034;28;20097;-78
2023/08/18 10:40:59;;;;;;;14.85;9.85;;;20.20;99.90;;;;;;5083773;28;20043;-79
2023/08/18 10:43:29;;;;;;;12.50;9.77;;;20.30;99.90;;;;;;5067359;28;20039;-79
2023/08/18 10:46:00;;;;;;;12.52;10.98;;;20.30;99.90;;;;;;5062188;28;20051;-79
2023/08/18 10:48:32;;;;;;;12.02;10.73;;;20.40;99.90;;;;;;5101045;27;20428;-79
2023/08/18 10:50:59;;;;;;;11.93;10.30;;;20.40;99.90;;;;;;5101765;28;20040;-79
2023/08/18 10:53:26;;;;;;;12.95;10.50;;;20.50;99.90;;;;;;5122602;27;20043;-79
2023/08/18 10:55:55;;;;;;;11.45;9.73;;;20.50;99.90;;;;;;5084954;28;20046;-79
2023/08/18 10:58:21;;;;;;;12.73;10.98;;;20.50;99.90;;;;;;5084870;28;20066;-78
2023/08/18 11:00:49;;;;;;;11.02;9.43;;;20.60;99.90;;;;;;5116966;27;20323;-79
2023/08/18 11:03:15;;;;;;;13.93;11.23;;;20.70;99.90;;;;;;5070888;27;20086;-79
2023/08/18 11:05:41;;;;;;;13.65;11.00;;;20.80;99.90;;;;;;5086633;28;20490;-79
2023/08/18 11:08:10;;;;;;;13.20;11.48;;;20.80;99.90;;;;;;5085197;28;20043;-79
2023/08/18 11:10:40;;;;;;;11.45;10.25;;;20.90;99.90;;;;;;5083247;28;20044;-79
2023/08/18 11:13:21;;;;;;;12.82;10.80;;;20.90;99.90;;;;;;5083320;28;20048;-78
2023/08/18 11:15:50;;;;;;;13.30;10.63;;;21.00;99.90;;;;;;5081664;28;20052;-80
2023/08/18 11:18:16;;;;;;;12.35;10.38;;;21.10;99.90;;;;;;5066965;28;20080;-79
2023/08/18 11:20:42;;;;;;;13.20;9.05;;;21.20;99.90;;;;;;5060731;28;20074;-79
2023/08/18 11:23:08;;;;;;;12.88;10.30;;;21.30;99.90;;;;;;5063671;28;20509;-80
2023/08/18 11:25:36;;;;;;;13.13;11.00;;;21.30;99.90;;;;;;5067471;28;20138;-80
2023/08/18 11:28:02;;;;;;;10.90;9.77;;;21.40;99.90;;;;;;5082025;28;20032;-80
2023/08/18 11:30:28;;;;;;;11.23;10.13;;;21.50;99.90;;;;;;5084199;28;20447;-80
2023/08/18 11:32:54;;;;;;;11.60;10.40;;;21.50;99.90;;;;;;5080533;28;20115;-79
2023/08/18 11:35:21;;;;;;;11.77;10.60;;;21.60;99.90;;;;;;5077206;28;20131;-80
2023/08/18 11:37:48;;;;;;;12.05;10.80;;;21.70;99.90;;;;;;5065565;28;20115;-79
2023/08/18 11:40:18;;;;;;;10.75;9.65;;;21.80;99.90;;;;;;5083972;28;20549;-79
2023/08/18 11:42:46;;;;;;;11.55;10.35;;;22.00;99.90;;;;;;5083344;28;20101;-79
2023/08/18 11:45:17;;;;;;;11.45;9.65;;;22.00;99.90;;;;;;5066724;28;20130;-79
2023/08/18 11:47:43;;;;;;;11.15;10.05;;;22.10;99.90;;;;;;5066435;28;20437;-80
2023/08/18 11:50:12;;;;;;;11.95;9.68;;;22.10;99.90;;;;;;5067374;28;20123;-79
2023/08/18 11:52:44;;;;;;;11.07;9.60;;;22.20;99.90;;;;;;5065289;28;20101;-80
2023/08/18 11:55:11;;;;;;;11.18;10.07;;;22.20;99.90;;;;;;5082459;28;20479;-79
2023/08/18 11:57:41;;;;;;;11.90;9.85;;;22.30;99.90;;;;;;5082217;28;20040;-79
2023/08/18 12:00:13;;;;;;;11.15;10.00;;;22.20;99.90;;;;;;5064935;28;20048;-79
2023/08/18 12:02:46;;;;;;;10.50;9.55;;;22.20;99.90;;;;;;5080479;28;20040;-80
2023/08/18 12:05:21;;;;;;;12.75;10.75;;;22.10;99.90;;;;;;5080073;28;20050;-79
2023/08/18 12:07:51;;;;;;;12.43;11.13;;;22.10;99.90;;;;;;5081914;28;20036;-79
2023/08/18 12:10:17;;;;;;;;;;;22.10;99.90;;;;;;5080845;28;20545;-79
2023/08/18 12:12:49;;;;;;;11.93;10.70;;;22.10;99.90;;;;;;5067926;28;20069;-79
2023/08/18 12:15:14;;;;;;;11.23;10.18;;;22.10;99.90;;;;;;5083166;28;20180;-78
2023/08/18 12:17:40;;;;;;;13.60;12.30;;;22.10;99.90;;;;;;5080900;28;20103;-78
2023/08/18 12:20:07;;;;;;;11.35;10.23;;;22.20;99.90;;;;;;5063292;28;20040;-78
2023/08/18 12:22:33;;;;;;;11.70;10.50;;;22.40;99.90;;;;;;5063477;28;20091;-78
2023/08/18 12:24:58;;;;;;;11.40;10.30;;;22.50;99.90;;;;;;5063824;28;20136;-78
2023/08/18 12:27:26;;;;;;;10.68;9.60;;;22.60;99.90;;;;;;5067336;28;20059;-78
2023/08/18 12:29:52;;;;;;;11.18;10.15;;;22.70;99.90;;;;;;5064531;28;20060;-78
2023/08/18 12:32:18;;;;;;;11.25;10.25;;;22.80;99.90;;;;;;5083929;28;20062;-79
2023/08/18 12:34:44;;;;;;;11.55;10.55;;;22.70;99.90;;;;;;5079544;28;20043;-78
2023/08/18 12:37:13;;;;;;;11.57;10.48;;;22.70;99.90;;;;;;5067338;28;20040;-77